Time;durP1;ratioP1;P1;durP2;ratioP2;P2;SDS_P1;SDS_P2;PMS_P1;PMS_P2;Temp;Humidity;BMP_temperature;BMP_pressure;BME280_temperature;BME280_humidity;BME280_pressure;Samples;Min_cycle;Max_cycle;Signal;HPM_P1;HPM_P2
2021/07/27 00:01:13;;;;;;;1999.90;999.90;;;;;;;18.88;42.54;100656.09;4794163;29;99369;-76
2021/07/27 00:03:42;;;;;;;1999.90;999.90;;;;;;;18.85;42.21;100657.97;4792327;29;97005;-76
2021/07/27 00:06:11;;;;;;;1999.90;999.90;;;;;;;18.85;42.59;100653.47;4794048;29;97137;-77
2021/07/27 00:08:39;;;;;;;1999.90;999.90;;;;;;;18.81;42.53;100651.72;4791907;29;100881;-77
2021/07/27 00:11:09;;;;;;;1999.90;999.90;;;;;;;18.78;42.48;100657.16;4783244;29;100625;-76
2021/07/27 00:13:37;;;;;;;1999.90;999.90;;;;;;;18.72;42.71;100662.63;4792997;29;96776;-76
2021/07/27 00:16:06;;;;;;;1999.90;999.90;;;;;;;18.70;42.97;100658.16;4777339;29;97445;-75
2021/07/27 00:18:35;;;;;;;1999.90;999.90;;;;;;;18.68;42.67;100654.56;4793817;29;98013;-74
2021/07/27 00:21:03;;;;;;;1999.90;999.90;;;;;;;18.67;42.97;100659.09;4792573;29;97547;-75
2021/07/27 00:23:33;;;;;;;1999.90;999.90;;;;;;;18.66;42.81;100656.44;4794035;29;96740;-76
2021/07/27 00:26:01;;;;;;;1999.90;999.90;;;;;;;18.65;43.17;100663.59;4793176;29;96955;-76
2021/07/27 00:28:29;;;;;;;1999.90;999.90;;;;;;;18.65;43.07;100666.31;4769713;29;100892;-75
2021/07/27 00:30:57;;;;;;;1999.90;999.90;;;;;;;18.62;43.54;100662.75;4779801;29;99422;-75
2021/07/27 00:33:25;;;;;;;1999.90;999.90;;;;;;;18.97;43.81;100655.97;4788483;29;97010;-75
2021/07/27 00:35:54;;;;;;;1999.90;999.90;;;;;;;18.74;43.87;100654.53;4792599;29;96906;-75
2021/07/27 00:38:22;;;;;;;1999.90;999.90;;;;;;;18.68;43.67;100649.19;4789617;29;99721;-75
2021/07/27 00:40:50;;;;;;;1999.90;999.90;;;;;;;19.00;43.95;100652.34;4790750;29;98607;-76
2021/07/27 00:43:19;;;;;;;1999.90;999.90;;;;;;;18.74;44.07;100649.13;4774774;29;97529;-75
2021/07/27 00:45:48;;;;;;;1999.90;999.90;;;;;;;18.60;44.18;100652.00;4790704;29;97329;-76
2021/07/27 00:48:16;;;;;;;1999.90;999.90;;;;;;;18.52;44.45;100653.00;4790374;29;97701;-76
2021/07/27 00:50:44;;;;;;;1999.90;999.90;;;;;;;18.45;44.22;100646.81;4792217;29;97616;-77
2021/07/27 00:53:15;;;;;;;1999.90;999.90;;;;;;;18.41;44.36;100644.16;4790965;29;97003;-76
2021/07/27 00:55:43;;;;;;;1999.90;999.90;;;;;;;18.37;44.46;100642.44;4790871;29;96927;-75
2021/07/27 00:58:11;;;;;;;1999.90;999.90;;;;;;;18.35;44.45;100638.88;4790782;29;98019;-76
2021/07/27 01:00:39;;;;;;;1999.90;999.90;;;;;;;18.33;44.39;100640.69;4791686;29;100346;-76
2021/07/27 01:03:07;;;;;;;1999.90;999.90;;;;;;;18.33;44.25;100636.19;4790214;29;97347;-77
2021/07/27 01:05:35;;;;;;;1999.90;999.90;;;;;;;18.31;44.29;100631.75;4775916;29;97512;-76
2021/07/27 01:08:04;;;;;;;1999.90;999.90;;;;;;;18.30;44.31;100630.84;4790183;29;100745;-76
2021/07/27 01:10:34;;;;;;;1999.90;999.90;;;;;;;18.29;44.43;100633.56;4781654;29;99216;-76
2021/07/27 01:13:01;;;;;;;1999.90;999.90;;;;;;;18.26;44.18;100629.09;4788502;29;96733;-76
2021/07/27 01:15:30;;;;;;;1999.90;999.90;;;;;;;18.23;44.45;100629.16;4798217;29;97033;-77
2021/07/27 01:18:03;;;;;;;1999.90;999.90;;;;;;;18.17;44.34;100629.22;4773960;29;99842;-76
2021/07/27 01:20:45;;;;;;;1999.90;999.90;;;;;;;18.11;44.36;100628.41;4796743;29;100649;-76
2021/07/27 01:39:48;;;;;;;1999.90;999.90;;;;;;;17.73;44.56;100627.00;4789936;29;99877;-76
2021/07/27 01:42:18;;;;;;;1999.90;999.90;;;;;;;17.66;44.56;100619.00;4789724;29;99614;-76
2021/07/27 01:44:46;;;;;;;1999.90;999.90;;;;;;;17.62;44.61;100623.53;4788962;29;96928;-76
2021/07/27 01:47:15;;;;;;;1999.90;999.90;;;;;;;17.98;44.27;100620.41;4803847;29;97020;-76
2021/07/27 01:49:43;;;;;;;1999.90;999.90;;;;;;;17.70;44.79;100613.59;4790211;29;98006;-76
2021/07/27 01:52:13;;;;;;;1999.90;999.90;;;;;;;17.60;45.08;100613.69;4774321;29;99334;-76
2021/07/27 01:54:56;;;;;;;1999.90;999.90;;;;;;;17.50;45.04;100618.28;4789463;29;97948;-76
2021/07/27 01:57:25;;;;;;;1999.90;999.90;;;;;;;17.46;45.06;100619.22;4789659;29;97254;-76
2021/07/27 02:00:08;;;;;;;1999.90;999.90;;;;;;;17.71;44.95;100623.44;4805262;29;98470;-76
2021/07/27 02:02:36;;;;;;;1999.90;999.90;;;;;;;17.47;45.38;100625.50;4804543;29;100504;-76
2021/07/27 02:05:09;;;;;;;1999.90;999.90;;;;;;;17.34;45.52;100622.00;4767642;29;96948;-75
2021/07/27 02:07:38;;;;;;;1999.90;999.90;;;;;;;17.29;45.52;100623.81;4773973;29;97424;-76
2021/07/27 02:10:12;;;;;;;1999.90;999.90;;;;;;;17.21;45.53;100631.06;4789164;29;98720;-76
2021/07/27 02:12:49;;;;;;;1999.90;999.90;;;;;;;17.13;45.53;100619.47;4774510;29;99276;-76
2021/07/27 02:15:22;;;;;;;1999.90;999.90;;;;;;;17.04;45.64;100614.16;4788710;29;98911;-76
2021/07/27 02:17:50;;;;;;;1999.90;999.90;;;;;;;17.00;45.78;100623.16;4774341;29;96926;-76
2021/07/27 02:20:18;;;;;;;1999.90;999.90;;;;;;;16.97;45.85;100616.03;4772527;29;99777;-76
2021/07/27 02:22:46;;;;;;;1999.90;999.90;;;;;;;16.95;45.66;100622.31;4789696;29;100651;-76
2021/07/27 02:25:16;;;;;;;1999.90;999.90;;;;;;;16.94;45.86;100624.09;4774160;29;96864;-76
2021/07/27 02:27:44;;;;;;;1999.90;999.90;;;;;;;16.93;45.72;100619.63;4788868;29;98035;-76
2021/07/27 02:30:13;;;;;;;1999.90;999.90;;;;;;;16.95;45.71;100633.06;4788495;29;98167;-76
2021/07/27 02:32:43;;;;;;;1999.90;999.90;;;;;;;16.96;45.79;100632.19;4788901;29;99600;-76
2021/07/27 02:35:11;;;;;;;1999.90;999.90;;;;;;;16.96;45.63;100634.88;4788433;29;96939;-76
2021/07/27 02:37:40;;;;;;;1999.90;999.90;;;;;;;16.94;45.65;100628.59;4764040;29;97210;-76
2021/07/27 02:40:10;;;;;;;1999.90;999.90;;;;;;;16.90;45.91;100641.19;4804172;29;100968;-76
2021/07/27 02:42:40;;;;;;;1999.90;999.90;;;;;;;16.86;45.75;100644.78;4789267;29;99467;-76
2021/07/27 02:45:10;;;;;;;1999.90;999.90;;;;;;;16.77;46.10;100655.59;4803005;29;97927;-76
2021/07/27 02:47:40;;;;;;;1999.90;999.90;;;;;;;16.66;46.24;100646.66;4790612;29;96935;-76
2021/07/27 02:50:09;;;;;;;1999.90;999.90;;;;;;;16.58;46.18;100648.50;4806110;29;99426;-75
2021/07/27 02:52:37;;;;;;;1999.90;999.90;;;;;;;16.52;46.06;100651.22;4789468;29;100221;-76
2021/07/27 02:55:06;;;;;;;1999.90;999.90;;;;;;;16.53;46.04;100649.41;4790316;29;96980;-76
2021/07/27 02:57:34;;;;;;;1999.90;999.90;;;;;;;16.53;46.18;100654.78;4789049;29;97043;-76
2021/07/27 03:00:04;;;;;;;1999.90;999.90;;;;;;;16.51;46.48;100653.91;4773999;29;101050;-76
2021/07/27 03:02:34;;;;;;;1999.90;999.90;;;;;;;16.49;46.14;100655.72;4788590;29;99100;-76
2021/07/27 03:05:02;;;;;;;1999.90;999.90;;;;;;;16.48;46.30;100661.97;4782808;29;96785;-76
2021/07/27 03:07:37;;;;;;;1999.90;999.90;;;;;;;16.48;46.50;100667.34;4780093;29;97833;-76
2021/07/27 03:10:18;;;;;;;1999.90;999.90;;;;;;;16.46;46.29;100653.03;4788343;29;99896;-75
2021/07/27 03:12:47;;;;;;;1999.90;999.90;;;;;;;16.44;46.67;100661.09;4773946;29;99347;-76
2021/07/27 03:15:17;;;;;;;1999.90;999.90;;;;;;;16.43;46.40;100662.03;4772093;29;97487;-76
2021/07/27 03:17:45;;;;;;;1999.90;999.90;;;;;;;16.41;46.67;100665.59;4787581;29;97296;-75
2021/07/27 03:20:15;;;;;;;1999.90;999.90;;;;;;;16.41;46.53;100662.91;4787818;29;97859;-75
2021/07/27 03:22:44;;;;;;;1999.90;999.90;;;;;;;16.41;46.68;100661.13;4788896;29;99283;-75
2021/07/27 03:25:15;;;;;;;1999.90;999.90;;;;;;;16.43;46.47;100666.50;4787090;29;96932;-75
2021/07/27 03:27:43;;;;;;;1999.90;999.90;;;;;;;16.42;46.43;100668.28;4788464;29;97813;-75
2021/07/27 03:30:12;;;;;;;1999.90;999.90;;;;;;;16.39;46.60;100662.03;4772571;29;99324;-75
2021/07/27 03:32:42;;;;;;;1999.90;999.90;;;;;;;16.34;46.88;100669.22;4788417;29;100579;-75
2021/07/27 03:35:12;;;;;;;1999.90;999.90;;;;;;;16.28;47.13;100658.50;4789753;29;97524;-75
2021/07/27 03:37:40;;;;;;;1999.90;999.90;;;;;;;16.23;46.91;100660.31;4788161;29;96883;-75
2021/07/27 03:40:09;;;;;;;1999.90;999.90;;;;;;;16.22;47.11;100674.63;4788825;29;100376;-75
2021/07/27 03:42:38;;;;;;;1999.90;999.90;;;;;;;16.18;47.27;100667.50;4788233;29;99732;-75
2021/07/27 03:45:07;;;;;;;1999.90;999.90;;;;;;;16.16;46.97;100663.94;4778886;29;96983;-75
2021/07/27 03:47:35;;;;;;;1999.90;999.90;;;;;;;16.17;46.99;100676.44;4772974;29;97397;-75
2021/07/27 03:50:05;;;;;;;1999.90;999.90;;;;;;;16.19;47.07;100674.66;4773189;29;99515;-75
2021/07/27 03:52:34;;;;;;;1999.90;999.90;;;;;;;16.18;47.18;100675.56;4781174;29;99429;-75
2021/07/27 03:55:02;;;;;;;1999.90;999.90;;;;;;;16.10;47.12;100679.13;4787352;29;97318;-75
2021/07/27 03:57:30;;;;;;;1999.90;999.90;;;;;;;16.04;47.29;100687.22;4787904;29;97936;-75
2021/07/27 03:59:58;;;;;;;1999.90;999.90;;;;;;;15.99;47.36;100682.72;4788069;29;100699;-75
2021/07/27 04:02:26;;;;;;;1999.90;999.90;;;;;;;15.96;47.68;100689.00;4783949;29;99459;-75
2021/07/27 04:04:55;;;;;;;1999.90;999.90;;;;;;;15.94;47.79;100697.97;4778611;29;96956;-75
2021/07/27 04:07:24;;;;;;;1999.90;999.90;;;;;;;15.91;47.94;100701.53;4776986;29;96863;-75
2021/07/27 04:09:53;;;;;;;1999.90;999.90;;;;;;;15.86;47.81;100695.28;4772212;29;99315;-75
2021/07/27 04:12:21;;;;;;;1999.90;999.90;;;;;;;16.25;47.83;100710.41;4785738;29;99226;-75
2021/07/27 04:14:49;;;;;;;1999.90;999.90;;;;;;;15.96;48.57;100707.78;4787958;29;96960;-78
2021/07/27 04:17:18;;;;;;;1999.90;999.90;;;;;;;15.84;48.58;100709.59;4788679;29;97507;-76
2021/07/27 04:19:46;;;;;;;1999.90;999.90;;;;;;;15.73;48.59;100712.28;4787710;29;99401;-76
2021/07/27 04:22:14;;;;;;;1999.90;999.90;;;;;;;16.10;48.29;100723.91;4780295;29;99868;-75
2021/07/27 04:24:44;;;;;;;1999.90;999.90;;;;;;;15.84;48.53;100715.88;4788100;29;96923;-75
2021/07/27 04:27:12;;;;;;;1999.90;999.90;;;;;;;15.77;48.92;100718.56;4802689;29;97624;-75
2021/07/27 04:29:40;;;;;;;1999.90;999.90;;;;;;;16.10;48.36;100721.22;4787855;29;99100;-75
2021/07/27 04:32:07;;;;;;;1999.90;999.90;;;;;;;15.84;49.07;100718.53;4787955;29;99382;-75
2021/07/27 04:34:36;;;;;;;1999.90;999.90;;;;;;;16.16;48.75;100717.63;4787946;29;96864;-75
2021/07/27 04:37:04;;;;;;;1999.90;999.90;;;;;;;15.94;48.76;100722.97;4790383;29;97949;-75
2021/07/27 04:39:32;;;;;;;1999.90;999.90;;;;;;;15.87;48.92;100715.84;4799428;29;99139;-75
2021/07/27 04:42:01;;;;;;;1999.90;999.90;;;;;;;15.85;48.52;100717.63;4793142;29;97872;-75
2021/07/27 04:44:29;;;;;;;1999.90;999.90;;;;;;;15.84;48.75;100725.69;4806980;29;97742;-76
2021/07/27 04:46:57;;;;;;;1999.90;999.90;;;;;;;15.80;48.53;100724.81;4791544;29;96814;-74
2021/07/27 04:49:25;;;;;;;1999.90;999.90;;;;;;;15.77;48.83;100722.13;4790438;29;100530;-74
2021/07/27 04:51:53;;;;;;;1999.90;999.90;;;;;;;15.77;48.75;100727.50;4776533;29;99222;-74
2021/07/27 04:54:28;;;;;;;1999.90;999.90;;;;;;;15.78;48.52;100729.28;4775228;29;96953;-74
2021/07/27 04:57:02;;;;;;;1999.90;999.90;;;;;;;16.21;47.86;100726.56;4790405;29;96874;-76
2021/07/27 04:59:32;;;;;;;1999.90;999.90;;;;;;;16.33;48.14;100722.03;4790943;29;100537;-74
2021/07/27 05:02:00;;;;;;;1999.90;999.90;;;;;;;16.09;48.48;100728.38;4795872;29;97879;-75
2021/07/27 05:04:29;;;;;;;1999.90;999.90;;;;;;;16.03;48.51;100733.75;4783327;29;96799;-76
2021/07/27 05:06:57;;;;;;;1999.90;999.90;;;;;;;16.39;47.61;100729.19;4790651;29;96935;-74
2021/07/27 05:09:26;;;;;;;1999.90;999.90;;;;;;;16.19;47.72;100742.66;4792419;29;98018;-75
2021/07/27 05:11:56;;;;;;;1999.90;999.90;;;;;;;16.14;47.95;100731.06;4774588;29;99992;-75
2021/07/27 05:14:25;;;;;;;1999.90;999.90;;;;;;;16.09;48.15;100733.72;4776395;29;96810;-75
2021/07/27 05:16:53;;;;;;;1999.90;999.90;;;;;;;16.10;47.70;100738.19;4775413;29;97355;-75
2021/07/27 05:19:22;;;;;;;1999.90;999.90;;;;;;;16.14;48.00;100740.88;4805787;29;97427;-74
2021/07/27 05:21:52;;;;;;;1999.90;999.90;;;;;;;16.16;47.53;100741.78;4775667;29;99379;-77
2021/07/27 05:24:21;;;;;;;1999.90;999.90;;;;;;;16.13;47.79;100742.66;4776750;29;96706;-75
2021/07/27 05:26:49;;;;;;;1999.90;999.90;;;;;;;16.48;47.23;100737.19;4790337;29;96942;-75
2021/07/27 05:29:18;;;;;;;1999.90;999.90;;;;;;;16.31;47.57;100744.41;4790116;29;99353;-73
2021/07/27 05:31:47;;;;;;;1999.90;999.90;;;;;;;16.31;47.34;100744.41;4790713;29;99406;-76
2021/07/27 05:34:16;;;;;;;1999.90;999.90;;;;;;;16.30;47.71;100750.69;4790391;29;96913;-75
2021/07/27 05:36:43;;;;;;;1999.90;999.90;;;;;;;16.27;47.56;100748.91;4791183;29;96888;-73
2021/07/27 05:39:12;;;;;;;1999.90;999.90;;;;;;;16.28;47.54;100747.13;4791033;29;99371;-73
2021/07/27 05:41:40;;;;;;;1999.90;999.90;;;;;;;16.30;47.20;100743.53;4791854;29;97715;-73
2021/07/27 05:44:08;;;;;;;1999.90;999.90;;;;;;;16.33;47.67;100748.88;4806517;29;97658;-76
2021/07/27 05:46:35;;;;;;;1999.90;999.90;;;;;;;16.34;47.17;100748.00;4790401;29;96878;-79
2021/07/27 05:49:09;;;;;;;1999.90;999.90;;;;;;;16.38;47.04;100740.84;4791350;29;99835;-77
2021/07/27 05:51:36;;;;;;;1999.90;999.90;;;;;;;16.38;47.21;100747.06;4776346;29;99487;-78
2021/07/27 05:54:04;;;;;;;1999.90;999.90;;;;;;;16.40;47.13;100747.06;4791576;29;96971;-77
2021/07/27 05:56:32;;;;;;;1999.90;999.90;;;;;;;16.43;47.01;100747.06;4791355;29;97002;-76
2021/07/27 05:59:00;;;;;;;1999.90;999.90;;;;;;;16.44;47.21;100755.13;4792099;29;97669;-76
2021/07/27 06:01:28;;;;;;;1999.90;999.90;;;;;;;16.48;46.90;100750.63;4790154;29;99139;-76
2021/07/27 06:03:57;;;;;;;1999.90;999.90;;;;;;;16.52;46.86;100752.41;4791202;29;96911;-78
2021/07/27 06:06:29;;;;;;;1999.90;999.90;;;;;;;16.53;46.85;100748.81;4775279;29;96992;-78
2021/07/27 06:08:59;;;;;;;1999.90;999.90;;;;;;;16.56;46.64;100757.75;4805794;29;99792;-76
2021/07/27 06:11:27;;;;;;;1999.90;999.90;;;;;;;16.59;46.57;100757.75;4789806;29;101315;-75
2021/07/27 06:13:55;;;;;;;1999.90;999.90;;;;;;;16.62;46.67;100759.53;4790569;29;96806;-75
2021/07/27 06:16:23;;;;;;;1999.90;999.90;;;;;;;16.64;46.33;100745.19;4792357;29;96801;-76
2021/07/27 06:18:51;;;;;;;1999.90;999.90;;;;;;;16.64;46.35;100755.94;4790559;29;100352;-75
2021/07/27 06:21:19;;;;;;;1999.90;999.90;;;;;;;16.96;45.89;100753.16;4788629;29;98777;-76
2021/07/27 06:23:48;;;;;;;1999.90;999.90;;;;;;;16.76;46.12;100750.53;4774979;29;96841;-76
2021/07/27 06:26:16;;;;;;;1999.90;999.90;;;;;;;16.75;46.40;100747.84;4791782;29;97007;-78
2021/07/27 06:28:44;;;;;;;1999.90;999.90;;;;;;;16.76;46.24;100749.66;4774569;29;100325;-76
2021/07/27 06:31:12;;;;;;;1999.90;999.90;;;;;;;16.76;46.46;100757.72;4774994;29;99795;-76
2021/07/27 06:33:40;;;;;;;1999.90;999.90;;;;;;;16.75;46.40;100748.75;4792800;29;96738;-76
2021/07/27 06:36:08;;;;;;;1999.90;999.90;;;;;;;16.75;46.37;100743.38;4797535;29;96899;-77
2021/07/27 06:38:36;;;;;;;1999.90;999.90;;;;;;;16.78;46.25;100745.19;4772505;29;100895;-74
2021/07/27 06:41:07;;;;;;;1999.90;999.90;;;;;;;16.82;46.21;100747.81;4791393;29;99119;-75
2021/07/27 06:43:36;;;;;;;1999.90;999.90;;;;;;;16.87;45.78;100750.50;4791457;29;96855;-75
2021/07/27 06:46:04;;;;;;;1999.90;999.90;;;;;;;16.88;45.80;100754.97;4784301;29;96938;-74
2021/07/27 06:48:32;;;;;;;1999.90;999.90;;;;;;;16.90;45.81;100758.53;4789609;29;99791;-76
2021/07/27 06:51:08;;;;;;;1999.90;999.90;;;;;;;16.89;45.66;100744.19;4775855;29;98972;-75
2021/07/27 06:53:36;;;;;;;1999.90;999.90;;;;;;;16.92;45.80;100762.13;4805024;29;96720;-75
2021/07/27 06:56:05;;;;;;;1999.90;999.90;;;;;;;16.96;45.59;100754.00;4806352;29;96802;-74
2021/07/27 06:58:35;;;;;;;1999.90;999.90;;;;;;;16.98;45.43;100745.97;4790146;29;99773;-76
2021/07/27 07:01:03;;;;;;;1999.90;999.90;;;;;;;17.01;45.53;100743.25;4789750;29;100744;-76
2021/07/27 07:03:32;;;;;;;1999.90;999.90;;;;;;;17.06;45.37;100734.25;4789555;29;96935;-75
2021/07/27 07:06:00;;;;;;;1999.90;999.90;;;;;;;17.12;45.30;100737.81;4784266;29;97485;-74
2021/07/27 07:08:29;;;;;;;1999.90;999.90;;;;;;;17.17;45.12;100744.94;4804973;29;99591;-76
2021/07/27 07:10:58;;;;;;;1999.90;999.90;;;;;;;17.20;45.13;100747.59;4790357;29;99337;-73
2021/07/27 07:13:26;;;;;;;1999.90;999.90;;;;;;;17.23;45.00;100742.22;4773375;29;97056;-75
2021/07/27 07:15:56;;;;;;;1999.90;999.90;;;;;;;17.29;45.05;100752.91;4790815;29;97004;-76
2021/07/27 07:18:24;;;;;;;1999.90;999.90;;;;;;;17.34;44.79;100752.91;4775292;29;99222;-75
2021/07/27 07:20:52;;;;;;;1999.90;999.90;;;;;;;17.66;44.25;100754.47;4771946;29;99637;-76
2021/07/27 07:23:20;;;;;;;1999.90;999.90;;;;;;;17.57;44.62;100748.25;4775033;29;96946;-75
2021/07/27 07:25:50;;;;;;;1999.90;999.90;;;;;;;17.58;44.58;100750.94;4774609;29;96939;-74
2021/07/27 07:28:20;;;;;;;1999.90;999.90;;;;;;;17.61;44.58;100750.03;4789025;29;99448;-75
2021/07/27 07:30:48;;;;;;;1999.90;999.90;;;;;;;17.65;44.51;100762.56;4774687;29;99879;-77
2021/07/27 07:33:17;;;;;;;1999.90;999.90;;;;;;;17.69;44.49;100761.63;4789577;29;97758;-77
2021/07/27 07:35:45;;;;;;;1999.90;999.90;;;;;;;17.69;44.45;100749.03;4775779;29;97374;-77
2021/07/27 07:38:13;;;;;;;1999.90;999.90;;;;;;;17.70;44.37;100756.22;4773415;29;99668;-74
2021/07/27 07:40:41;;;;;;;1999.90;999.90;;;;;;;17.69;44.31;100749.03;4790123;29;97731;-75
2021/07/27 07:43:09;;;;;;;1999.90;999.90;;;;;;;17.74;44.34;100746.31;4789987;29;96928;-74
2021/07/27 07:45:37;;;;;;;1999.90;999.90;;;;;;;17.76;44.21;100740.03;4780652;29;97357;-75
2021/07/27 07:48:05;;;;;;;1999.90;999.90;;;;;;;17.84;44.13;100748.00;4789061;29;98381;-73
2021/07/27 07:50:36;;;;;;;1999.90;999.90;;;;;;;17.89;43.96;100744.38;4775187;29;99323;-74
2021/07/27 07:53:04;;;;;;;1999.90;999.90;;;;;;;17.97;43.85;100741.63;4783185;29;96771;-74
2021/07/27 07:55:32;;;;;;;1999.90;999.90;;;;;;;18.00;43.85;100747.00;4765911;29;97084;-75
2021/07/27 07:58:01;;;;;;;1999.90;999.90;;;;;;;18.07;43.62;100746.06;4789805;29;99787;-75
2021/07/27 08:00:29;;;;;;;1999.90;999.90;;;;;;;18.14;43.62;100744.16;4790964;29;99271;-76
2021/07/27 08:02:57;;;;;;;1999.90;999.90;;;;;;;18.21;43.60;100745.88;4792068;29;97086;-76
2021/07/27 08:05:25;;;;;;;1999.90;999.90;;;;;;;18.30;43.13;100740.41;4773661;29;98020;-75
2021/07/27 08:07:54;;;;;;;1999.90;999.90;;;;;;;18.37;43.12;100744.84;4789376;29;100464;-77
2021/07/27 08:10:22;;;;;;;1999.90;999.90;;;;;;;18.46;42.98;100742.91;4789970;29;99357;-74
2021/07/27 08:12:51;;;;;;;1999.90;999.90;;;;;;;18.54;42.77;100750.91;4785433;29;96834;-77
2021/07/27 08:15:24;;;;;;;1999.90;999.90;;;;;;;18.61;42.70;100749.91;4791071;29;97277;-74
2021/07/27 08:17:52;;;;;;;1999.90;999.90;;;;;;;18.71;42.39;100738.16;4792278;29;100269;-77
2021/07/27 08:20:21;;;;;;;1999.90;999.90;;;;;;;18.77;41.84;100735.34;4792758;29;97889;-76
2021/07/27 08:22:49;;;;;;;1999.90;999.90;;;;;;;18.80;42.07;100748.81;4776355;29;97377;-76
2021/07/27 08:25:20;;;;;;;1999.90;999.90;;;;;;;18.83;41.80;100741.56;4777394;29;96998;-74
2021/07/27 08:27:48;;;;;;;1999.90;999.90;;;;;;;18.85;41.98;100741.53;4773944;29;100810;-76
2021/07/27 08:30:17;;;;;;;1999.90;999.90;;;;;;;18.84;41.78;100761.34;4790331;29;100221;-76
2021/07/27 08:32:46;;;;;;;1999.90;999.90;;;;;;;18.82;41.68;100749.69;4791766;29;96727;-76
2021/07/27 08:35:15;;;;;;;1999.90;999.90;;;;;;;18.82;42.02;100755.94;4783852;29;96937;-76
2021/07/27 08:37:43;;;;;;;1999.90;999.90;;;;;;;18.83;41.72;100749.66;4790314;29;98623;-76
2021/07/27 08:40:13;;;;;;;1999.90;999.90;;;;;;;18.87;41.57;100750.50;4774812;29;100602;-76
2021/07/27 08:42:42;;;;;;;1999.90;999.90;;;;;;;18.85;41.41;100755.94;4775553;29;96858;-76
2021/07/27 08:45:12;;;;;;;1999.90;999.90;;;;;;;18.87;41.47;100753.22;4790300;29;96850;-76
2021/07/27 08:47:41;;;;;;;1999.90;999.90;;;;;;;18.88;41.20;100749.59;4788506;29;100081;-76
2021/07/27 08:50:10;;;;;;;1999.90;999.90;;;;;;;18.87;41.40;100745.13;4790542;29;99375;-76
2021/07/27 08:52:38;;;;;;;1999.90;999.90;;;;;;;18.91;41.41;100750.47;4792208;29;96837;-76
2021/07/27 08:55:07;;;;;;;1999.90;999.90;;;;;;;18.99;41.17;100753.03;4774907;29;96960;-76
2021/07/27 08:57:35;;;;;;;1999.90;999.90;;;;;;;19.03;40.88;100750.28;4790169;29;99435;-76
2021/07/27 09:00:06;;;;;;;1999.90;999.90;;;;;;;19.03;41.11;100762.88;4791097;29;100249;-76
2021/07/27 09:02:34;;;;;;;1999.90;999.90;;;;;;;19.03;41.02;100754.78;4789592;29;97040;-76
2021/07/27 09:05:08;;;;;;;1999.90;999.90;;;;;;;19.06;40.35;100764.63;4805427;29;96955;-76
2021/07/27 09:07:36;;;;;;;1999.90;999.90;;;;;;;19.03;40.64;100760.16;4774645;29;100876;-76
2021/07/27 09:10:18;;;;;;;1999.90;999.90;;;;;;;19.01;39.22;100757.50;4791917;29;99560;-76
2021/07/27 09:12:53;;;;;;;1999.90;999.90;;;;;;;19.03;40.03;100757.47;4789421;29;97703;-76
2021/07/27 09:15:23;;;;;;;1999.90;999.90;;;;;;;19.08;40.04;100752.91;4773702;29;97014;-76
2021/07/27 09:17:55;;;;;;;1999.90;999.90;;;;;;;19.10;39.04;100756.47;4791425;29;97829;-76
2021/07/27 09:20:31;;;;;;;1999.90;999.90;;;;;;;19.07;37.79;100755.63;4773329;29;99302;-76
2021/07/27 09:22:59;;;;;;;1999.90;999.90;;;;;;;19.17;39.93;100752.75;4790892;29;97127;-76
2021/07/27 09:25:29;;;;;;;1999.90;999.90;;;;;;;19.21;40.06;100754.50;4774752;29;96890;-76
2021/07/27 09:28:05;;;;;;;1999.90;999.90;;;;;;;19.25;39.45;100756.25;4789527;29;98904;-76
2021/07/27 09:30:36;;;;;;;1999.90;999.90;;;;;;;19.30;39.92;100748.97;4789329;29;97819;-76
2021/07/27 09:33:05;;;;;;;1999.90;999.90;;;;;;;19.39;39.79;100748.88;4774820;29;96773;-76
2021/07/27 09:35:33;;;;;;;1999.90;999.90;;;;;;;19.41;39.63;100744.34;4791556;29;97043;-76
2021/07/27 09:38:08;;;;;;;1999.90;999.90;;;;;;;19.44;40.04;100746.09;4789162;29;99422;-76
2021/07/27 09:40:37;;;;;;;1999.90;999.90;;;;;;;19.49;39.63;100750.53;4790220;29;99245;-76
2021/07/27 09:43:05;;;;;;;1999.90;999.90;;;;;;;19.45;39.87;100751.47;4789438;29;97515;-76
2021/07/27 09:45:34;;;;;;;1999.90;999.90;;;;;;;19.43;39.89;100760.50;4787927;29;96883;-76
2021/07/27 09:48:06;;;;;;;1999.90;999.90;;;;;;;19.41;39.82;100765.94;4790495;29;99032;-76
2021/07/27 09:50:35;;;;;;;1999.90;999.90;;;;;;;19.35;39.60;100768.75;4789294;29;99440;-76
2021/07/27 09:53:03;;;;;;;1999.90;999.90;;;;;;;19.24;40.01;100765.28;4774076;29;96899;-76
2021/07/27 09:55:31;;;;;;;1999.90;999.90;;;;;;;19.14;40.74;100770.81;4767958;29;97111;-76
2021/07/27 09:58:00;;;;;;;1999.90;999.90;;;;;;;19.05;40.21;100769.13;4790736;29;100369;-75
2021/07/27 10:00:28;;;;;;;1999.90;999.90;;;;;;;19.25;41.16;100767.03;4788851;29;99329;-76
2021/07/27 10:02:58;;;;;;;1999.90;999.90;;;;;;;18.98;42.05;100767.44;4790429;29;96868;-76
2021/07/27 10:05:27;;;;;;;1999.90;999.90;;;;;;;19.20;41.78;100773.41;4789407;29;97161;-77
2021/07/27 10:07:56;;;;;;;1999.90;999.90;;;;;;;18.85;42.75;100768.50;4805414;29;100363;-76
2021/07/27 10:10:39;;;;;;;1999.90;999.90;;;;;;;19.02;42.42;100770.06;4788065;29;100918;-77
2021/07/27 10:13:09;;;;;;;1999.90;999.90;;;;;;;18.85;42.79;100774.81;4791219;29;96800;-76
2021/07/27 10:15:42;;;;;;;1999.90;999.90;;;;;;;18.82;43.06;100772.13;4791339;29;97400;-75
2021/07/27 10:18:12;;;;;;;1999.90;999.90;;;;;;;19.11;42.76;100774.47;4773226;29;98443;-75
2021/07/27 10:20:41;;;;;;;1999.90;999.90;;;;;;;19.22;43.08;100775.19;4787037;29;99161;-77
2021/07/27 10:23:20;;;;;;;1999.90;999.90;;;;;;;19.35;43.31;100771.44;4790286;29;97606;-75
2021/07/27 10:25:58;;;;;;;1999.90;999.90;;;;;;;19.42;42.71;100766.81;4788821;29;96860;-77
2021/07/27 10:28:27;;;;;;;1999.90;999.90;;;;;;;19.25;43.21;100772.44;4789740;29;99079;-76
2021/07/27 10:31:03;;;;;;;1999.90;999.90;;;;;;;19.55;42.26;100776.53;4786792;29;100570;-76
2021/07/27 10:33:33;;;;;;;1999.90;999.90;;;;;;;19.67;42.38;100770.91;4786215;29;97067;-75
2021/07/27 10:36:02;;;;;;;1999.90;999.90;;;;;;;19.50;42.35;100783.81;4790926;29;96958;-76
2021/07/27 10:38:38;;;;;;;1999.90;999.90;;;;;;;19.44;42.48;100775.78;4788887;29;101431;-76
2021/07/27 10:41:17;;;;;;;1999.90;999.90;;;;;;;19.43;41.96;100771.28;4787540;29;99542;-75
2021/07/27 10:43:46;;;;;;;1999.90;999.90;;;;;;;19.48;42.04;100775.72;4790313;29;97859;-75
2021/07/27 10:46:13;;;;;;;1999.90;999.90;;;;;;;19.45;42.02;100778.47;4768248;29;96826;-76
2021/07/27 10:48:43;;;;;;;1999.90;999.90;;;;;;;19.40;42.19;100782.16;4788150;29;99498;-76
2021/07/27 10:51:11;;;;;;;1999.90;999.90;;;;;;;19.33;42.22;100789.47;4788469;29;102144;-76
2021/07/27 10:53:43;;;;;;;1999.90;999.90;;;;;;;19.25;41.42;100780.53;4784819;29;97564;-76
2021/07/27 10:56:10;;;;;;;1999.90;999.90;;;;;;;19.19;42.02;100780.63;4804710;29;96912;-75
2021/07/27 10:58:38;;;;;;;1999.90;999.90;;;;;;;19.17;41.97;100781.56;4781376;29;100515;-76
2021/07/27 11:01:08;;;;;;;1999.90;999.90;;;;;;;19.16;41.83;100780.66;4773599;29;99629;-76
2021/07/27 11:03:41;;;;;;;1999.90;999.90;;;;;;;19.21;41.75;100775.22;4789673;29;96811;-76
2021/07/27 11:06:40;;;;;;;1999.90;999.90;;;;;;;19.16;41.78;100782.47;4788750;29;96812;-76
2021/07/27 11:09:14;;;;;;;1999.90;999.90;;;;;;;19.12;41.73;100769.94;4789117;29;97548;-76
2021/07/27 11:11:49;;;;;;;1999.90;999.90;;;;;;;19.11;41.93;100773.56;4790165;29;99441;-75